Latest Weather Observations for Gladstone

IDQ60801

Issued at 2:02 pm EST Tuesday 31 May 2016 (issued every 30 minutes, with the page automatically refreshed every 10 minutes)

About weather observations | Map of weather stations | Latest weather observations for QLD | Other Formats
Station Details ID: 039123 Name: GLADSTONE RADAR Lat: -23.86 Lon: 151.26 Height: 74.5 m
Data from the previous 72 hours. | See also: Recent months at Gladstone
Date/Time
EST
Temp
°C
App
Temp
°C
Dew
Point
Rel
Hum
%
Delta-T
°C
Wind Press
QNH
hPa
Press
MSL
hPa
Rain
since 9 am
mm
Dir
 
Spd
km/h
Gust
km/h
Spd
kts
Gust
kts
31/02:00pm 23.2 19.9 13.9 56 5.4 E 24 32 13 17 1022.1 1021.8 0.0
31/01:30pm 24.6 20.9 13.8 51 6.3 E 26 37 14 20 1022.0 1021.7 0.0
31/01:00pm 24.6 20.7 13.2 49 6.6 E 26 35 14 19 1022.4 1022.1 0.0
31/12:30pm 24.4 20.3 13.9 52 6.2 E 28 37 15 20 1022.9 1022.6 0.0
31/12:00pm 24.7 22.0 14.5 53 6.1 ESE 22 32 12 17 1023.5 1023.2 0.0
31/11:30am 25.1 22.7 14.3 51 6.4 E 20 32 11 17 1023.8 1023.5 0.0
31/11:00am 23.1 19.3 13.6 55 5.5 ESE 26 33 14 18 1024.0 1023.7 0.0
31/10:30am 23.3 20.1 13.2 53 5.9 ESE 22 33 12 18 1024.5 1024.2 0.0
31/10:00am 23.9 20.9 13.7 53 6.0 ESE 22 33 12 18 1024.8 1024.5 0.0
31/09:30am 21.7 19.5 13.3 59 4.8 SE 17 26 9 14 1024.9 1024.6 0.0
31/09:00am 20.7 18.5 13.4 63 4.2 SE 17 24 9 13 1024.9 1024.6 0.0
31/08:30am 19.9 17.2 12.9 64 4.0 SE 19 30 10 16 1024.7 1024.4 0.0
31/08:00am 19.5 17.1 12.5 64 3.9 SE 17 24 9 13 1024.3 1024.0 0.0
31/07:30am 18.7 16.6 12.5 67 3.5 SSE 15 22 8 12 1024.1 1023.8 0.0
31/07:00am 17.9 15.3 12.1 69 3.2 SSE 17 24 9 13 1023.7 1023.4 0.0
31/06:30am 17.6 14.7 12.3 71 2.9 SSE 19 26 10 14 1023.3 1023.0 0.0
31/06:00am 17.6 15.1 12.3 71 2.9 SSE 17 24 9 13 1023.2 1022.9 0.0
31/05:30am 17.6 15.2 12.5 72 2.8 SSE 17 24 9 13 1023.0 1022.7 0.0
31/05:00am 17.5 15.0 12.4 72 2.8 SSE 17 26 9 14 1022.6 1022.3 0.0
31/04:30am 17.5 14.5 12.0 70 3.0 SSE 19 26 10 14 1022.4 1022.1 0.0
31/04:00am 17.3 14.5 11.3 68 3.2 SE 17 26 9 14 1022.0 1021.7 0.0
31/03:30am 17.7 14.9 11.3 66 3.5 SSE 17 24 9 13 1022.4 1022.1 0.0
31/03:00am 17.6 15.0 10.7 64 3.7 SSE 15 20 8 11 1022.3 1022.0 0.0
31/02:30am 17.6 14.4 10.0 61 4.0 SSE 17 24 9 13 1022.1 1021.8 0.0
31/02:00am 17.9 14.5 9.3 57 4.5 SSE 17 22 9 12 1022.3 1022.0 0.0
31/01:30am 18.0 14.5 8.6 54 4.9 SSE 17 24 9 13 1022.4 1022.1 0.0
31/01:00am 18.3 15.2 8.8 54 4.9 SSE 15 22 8 12 1022.7 1022.4 0.0
31/12:30am 18.6 15.5 8.8 53 5.1 SSE 15 22 8 12 1022.8 1022.5 0.0
31/12:00am 18.8 14.9 8.7 52 5.2 SSE 19 26 10 14 1022.8 1022.5 0.0
 
Date/Time
EST
Temp
°C
App
Temp
°C
Dew
Point
Rel
Hum
%
Delta-T
°C
Wind Press
QNH
hPa
Press
MSL
hPa
Rain
since 9 am
mm
Dir
 
Spd
km/h
Gust
km/h
Spd
kts
Gust
kts
30/11:30pm 18.8 15.5 8.2 50 5.5 SSE 15 20 8 11 1022.9 1022.6 0.0
30/11:00pm 19.0 15.3 8.1 49 5.6 SSE 17 22 9 12 1022.8 1022.5 0.0
30/10:30pm 18.8 15.1 7.9 49 5.6 SSE 17 20 9 11 1023.0 1022.7 0.0
30/10:00pm 18.7 15.5 8.4 51 5.3 SSE 15 22 8 12 1023.0 1022.7 0.0
30/09:30pm 18.6 16.2 9.9 57 4.6 SSE 13 17 7 9 1023.0 1022.7 0.0
30/09:00pm 18.9 17.0 11.7 63 4.0 SSE 13 15 7 8 1022.9 1022.6 0.0
30/08:30pm 19.5 17.9 11.5 60 4.4 ESE 11 15 6 8 1023.0 1022.7 0.0
30/08:00pm 19.6 16.8 11.4 59 4.5 E 17 19 9 10 1022.7 1022.4 0.0
30/07:30pm 19.7 17.3 11.5 59 4.5 E 15 19 8 10 1022.6 1022.3 0.0
30/07:00pm 19.6 17.3 11.9 61 4.3 E 15 19 8 10 1022.1 1021.8 0.0
30/06:30pm 19.6 17.4 12.1 62 4.2 E 15 20 8 11 1021.9 1021.6 0.0
30/06:00pm 19.6 17.1 12.4 63 4.0 ENE 17 26 9 14 1021.5 1021.2 0.0
30/05:30pm 19.9 17.4 12.2 61 4.3 E 17 24 9 13 1021.1 1020.8 0.0
30/05:00pm 20.4 17.6 11.3 56 5.0 ENE 17 24 9 13 1020.8 1020.5 0.0
30/04:30pm 21.7 19.5 12.0 54 5.5 ENE 15 24 8 13 1020.6 1020.3 0.0
30/04:00pm 22.2 19.4 11.3 50 6.1 ENE 17 22 9 12 1020.3 1020.0 0.0
30/03:30pm 23.2 20.8 11.3 47 6.7 ENE 15 20 8 11 1020.2 1019.9 0.0
30/03:00pm 23.8 21.3 11.2 45 7.1 ENE 15 20 8 11 1020.1 1019.8 0.0
30/02:30pm 24.6 22.6 11.5 44 7.4 NE 13 20 7 11 1020.1 1019.8 0.0
30/02:00pm 24.6 22.4 10.8 42 7.7 ENE 13 19 7 10 1020.3 1020.0 0.0
30/01:30pm 25.4 23.6 10.8 40 8.2 ENE 11 17 6 9 1020.5 1020.2 0.0
30/01:00pm 25.1 23.1 10.2 39 8.2 NE 11 17 6 9 1020.8 1020.5 0.0
30/12:30pm 25.5 23.7 10.9 40 8.2 NE 11 19 6 10 1021.2 1020.9 0.0
30/12:00pm 25.0 22.4 9.3 37 8.5 ENE 13 20 7 11 1021.9 1021.6 0.0
30/11:30am 24.7 22.0 9.0 37 8.5 ENE 13 20 7 11 1022.3 1022.0 0.0
30/11:00am 23.6 21.5 8.1 37 8.2 ESE 9 15 5 8 1022.7 1022.4 0.0
30/10:30am 22.7 20.9 7.3 37 8.0 ESE 6 13 3 7 1022.8 1022.5 0.0
30/10:00am 21.7 19.1 6.0 36 7.9 SE 9 13 5 7 1023.0 1022.7 0.0
30/09:30am 21.1 18.8 5.9 37 7.6 SE 7 11 4 6 1023.2 1022.9 0.0
30/09:00am 19.2 17.0 6.0 42 6.5 ESE 7 11 4 6 1023.1 1022.8 0.0
30/08:30am 17.5 15.5 6.1 47 5.6 ENE 6 7 3 4 1022.8 1022.5 0.0
30/08:00am 16.7 15.5 6.5 51 5.0 E 2 6 1 3 1022.3 1022.0 0.0
30/07:30am 16.0 13.8 6.4 53 4.7 SSE 7 9 4 5 1022.3 1022.0 0.0
30/07:00am 16.1 12.5 3.2 42 5.9 S 11 15 6 8 1021.8 1021.5 0.0
30/06:30am 16.3 12.8 3.4 42 5.9 S 11 15 6 8 1021.4 1021.1 0.0
30/06:00am 16.5 12.9 3.2 41 6.1 S 11 13 6 7 1021.1 1020.8 0.0
30/05:30am 16.1 13.1 4.2 45 5.6 SSW 9 13 5 7 1020.9 1020.6 0.0
30/05:00am 14.7 11.9 5.0 52 4.5 SSW 9 11 5 6 1020.6 1020.3 0.0
30/04:30am 16.4 13.1 4.4 45 5.6 S 11 13 6 7 1020.3 1020.0 0.0
30/04:00am 17.5 13.7 3.8 40 6.4 S 13 17 7 9 1020.0 1019.7 0.0
30/03:30am 17.3 13.6 4.6 43 6.0 S 13 19 7 10 1020.1 1019.8 0.0
30/03:00am 17.4 13.8 5.0 44 5.9 S 13 17 7 9 1020.0 1019.7 0.0
30/02:30am 17.6 13.6 4.9 43 6.1 S 15 19 8 10 1020.0 1019.7 0.0
30/02:00am 17.7 14.0 6.3 47 5.6 S 15 17 8 9 1020.1 1019.8 0.0
30/01:30am 18.0 14.9 7.1 49 5.5 S 13 17 7 9 1020.0 1019.7 0.0
30/01:00am 17.7 14.6 7.2 50 5.3 SSW 13 17 7 9 1020.2 1019.9 0.0
30/12:30am 17.7 15.2 9.8 60 4.2 SSW 13 15 7 8 1020.3 1020.0 0.0
30/12:00am 17.4 16.0 10.8 65 3.5 SSW 9 11 5 6 1020.3 1020.0 0.0
 
Date/Time
EST
Temp
°C
App
Temp
°C
Dew
Point
Rel
Hum
%
Delta-T
°C
Wind Press
QNH
hPa
Press
MSL
hPa
Rain
since 9 am
mm
Dir
 
Spd
km/h
Gust
km/h
Spd
kts
Gust
kts
29/11:30pm 17.9 17.0 11.2 65 3.6 SW 7 7 4 4 1020.5 1020.2 0.0
29/11:00pm 17.5 16.0 10.6 64 3.7 SSW 9 11 5 6 1020.6 1020.3 0.0
29/10:30pm 18.1 18.5 11.4 65 3.7 CALM 0 0 0 0 1020.6 1020.3 0.0
29/10:00pm 18.3 18.6 10.9 62 4.0 CALM 0 0 0 0 1020.7 1020.4 0.0
29/09:30pm 17.7 16.6 10.6 63 3.8 WSW 7 9 4 5 1020.9 1020.6 0.0
29/09:00pm 18.1 18.3 10.7 62 4.0 CALM 0 0 0 0 1020.7 1020.4 0.0
29/08:30pm 18.8 18.0 11.1 61 4.2 NNW 6 7 3 4 1020.3 1020.0 0.0
29/08:00pm 18.8 18.1 11.4 62 4.1 N 6 7 3 4 1020.1 1019.8 0.0
29/07:30pm 18.1 17.1 11.0 63 3.9 N 7 7 4 4 1019.7 1019.4 0.0
29/07:00pm 18.6 17.7 11.2 62 4.0 N 7 9 4 5 1019.5 1019.2 0.0
29/06:30pm 18.4 17.2 10.3 59 4.3 NNE 7 9 4 5 1019.0 1018.8 0.0
29/06:00pm 18.8 17.4 9.6 55 4.9 N 7 13 4 7 1018.7 1018.5 0.0
29/05:30pm 19.1 17.3 9.3 53 5.2 NNE 9 15 5 8 1018.3 1018.1 0.0
29/05:00pm 19.7 17.8 9.0 50 5.6 NNE 9 17 5 9 1017.9 1017.7 0.0
29/04:30pm 20.8 18.3 8.1 44 6.6 NE 11 19 6 10 1017.6 1017.4 0.0
29/04:00pm 21.6 18.9 8.8 44 6.8 NE 13 17 7 9 1017.3 1017.1 0.0
29/03:30pm 22.1 18.8 8.2 41 7.3 NE 15 20 8 11 1017.0 1016.8 0.0
29/03:00pm 23.8 21.4 8.6 38 8.1 NE 11 19 6 10 1016.9 1016.7 0.0
29/02:30pm 23.8 21.3 8.2 37 8.3 NE 11 20 6 11 1016.9 1016.7 0.0
29/02:00pm 25.0 22.7 7.6 33 9.2 NE 9 17 5 9 1016.9 1016.7 0.0
29/01:30pm 24.9 22.3 6.1 30 9.7 NE 9 13 5 7 1017.0 1016.8 0.0
29/01:00pm 24.3 21.2 5.6 30 9.5 NE 11 17 6 9 1017.3 1017.1 0.0
29/12:30pm 24.4 21.7 5.7 30 9.5 NE 9 17 5 9 1017.6 1017.4 0.0
29/12:00pm 24.0 21.0 5.8 31 9.3 NE 11 15 6 8 1018.2 1018.0 0.0
29/11:30am 23.8 21.8 7.0 34 8.8 NE 7 13 4 7 1018.7 1018.5 0.0
29/11:00am 22.8 20.3 3.9 29 9.2 ESE 6 9 3 5 1019.1 1018.9 0.0
29/10:30am 21.3 18.1 3.0 30 8.7 SSW 9 15 5 8 1019.5 1019.2 0.0
29/10:00am 20.5 17.3 2.8 31 8.3 S 9 15 5 8 1019.8 1019.5 0.0
29/09:30am 18.9 14.9 3.1 35 7.4 SSW 13 20 7 11 1019.9 1019.6 0.0
29/09:00am 17.8 15.9 5.1 43 6.1 SW 4 7 2 4 1019.9 1019.6 0.0
29/08:30am 16.6 14.6 4.6 45 5.7 SW 4 7 2 4 1019.6 1019.3 0.0
29/08:00am 15.8 13.4 4.2 46 5.4 SSW 6 11 3 6 1019.0 1018.8 0.0
29/07:30am 15.6 12.1 3.4 44 5.6 SSW 11 17 6 9 1018.6 1018.4 0.0
29/07:00am 15.4 11.8 2.9 43 5.6 SSW 11 19 6 10 1018.4 1018.2 0.0
29/06:30am 15.6 11.6 2.7 42 5.8 SSW 13 20 7 11 1018.1 1017.9 0.0
29/06:00am 15.5 12.2 2.7 42 5.8 SSW 9 17 5 9 1017.8 1017.6 0.0
29/05:30am 16.0 12.8 2.8 41 6.0 S 9 13 5 7 1017.7 1017.5 0.0
29/05:00am 16.4 12.8 2.8 40 6.2 S 11 17 6 9 1017.1 1016.9 0.0
29/04:30am 17.0 12.7 3.0 39 6.4 SSW 15 24 8 13 1016.7 1016.5 0.0
29/04:00am 17.3 12.6 3.2 39 6.5 SSW 17 24 9 13 1016.7 1016.5 0.0
29/03:30am 17.5 12.5 3.4 39 6.6 SSW 19 28 10 15 1016.5 1016.3 0.0
29/03:00am 17.3 12.8 4.3 42 6.1 S 17 20 9 11 1016.6 1016.4 0.0
29/02:30am 18.2 14.1 4.4 40 6.6 S 15 20 8 11 1016.5 1016.3 0.0
29/02:00am 18.2 14.5 4.4 40 6.6 SSW 13 19 7 10 1016.7 1016.5 0.0
29/01:30am 19.2 15.0 3.8 36 7.3 SSW 15 20 8 11 1016.7 1016.5 0.0
29/01:00am 19.3 15.3 5.0 39 7.0 SSW 15 20 8 11 1016.6 1016.4 0.0
29/12:30am 19.6 16.3 6.4 42 6.6 SSW 13 20 7 11 1016.4 1016.2 0.0
29/12:00am 18.1 15.8 7.5 50 5.4 WSW 9 13 5 7 1016.4 1016.2 0.0
 
Date/Time
EST
Temp
°C
App
Temp
°C
Dew
Point
Rel
Hum
%
Delta-T
°C
Wind Press
QNH
hPa
Press
MSL
hPa
Rain
since 9 am
mm
Dir
 
Spd
km/h
Gust
km/h
Spd
kts
Gust
kts
28/11:30pm 19.0 16.8 7.8 48 5.7 WSW 9 13 5 7 1016.4 1016.2 0.0
28/11:00pm 19.5 17.6 7.6 46 6.1 WSW 7 9 4 5 1016.4 1016.2 0.0
28/10:30pm 19.4 17.5 7.5 46 6.1 SW 7 9 4 5 1016.4 1016.2 0.0
28/10:00pm 19.6 17.7 7.7 46 6.1 SW 7 9 4 5 1016.3 1016.1 0.0
28/09:30pm 20.2 18.4 7.9 45 6.4 WSW 7 9 4 5 1016.2 1016.0 0.0
28/09:00pm 20.7 18.9 8.0 44 6.6 SW 7 11 4 6 1016.1 1015.9 0.0
28/08:30pm 21.2 18.7 8.1 43 6.9 WSW 11 15 6 8 1015.9 1015.7 0.0
28/08:00pm 21.2 18.6 7.8 42 7.0 SW 11 17 6 9 1015.6 1015.4 0.0
28/07:30pm 21.3 18.3 7.9 42 7.0 WSW 13 20 7 11 1015.3 1015.0 0.0
28/07:00pm 21.1 18.6 8.0 43 6.8 WSW 11 15 6 8 1015.0 1014.7 0.0
28/06:30pm 21.2 18.7 8.1 43 6.9 WSW 11 17 6 9 1014.7 1014.4 0.0
28/06:00pm 21.8 18.9 8.0 41 7.2 WSW 13 19 7 10 1014.3 1014.0 0.0
28/05:30pm 22.2 19.7 8.0 40 7.5 WSW 11 20 6 11 1014.1 1013.8 0.0
28/05:00pm 22.8 20.5 8.9 41 7.4 WSW 11 17 6 9 1013.8 1013.5 0.0
28/04:30pm 24.3 22.4 9.1 38 8.2 WSW 9 19 5 10 1013.5 1013.2 0.0
28/04:00pm 25.5 23.2 8.9 35 9.0 W 11 20 6 11 1013.0 1012.7 0.0
28/03:30pm 25.6 23.8 9.4 36 8.9 W 9 17 5 9 1012.7 1012.4 0.0
28/03:00pm 25.2 23.9 9.9 38 8.5 W 7 17 4 9 1012.7 1012.4 0.0
28/02:30pm 23.9 23.0 10.6 43 7.4 NW 6 11 3 6 1012.9 1012.6 0.0

Other Formats:

Comma delimited format used in spreadsheet applications
http://www.bom.gov.au/fwo/IDQ60801/IDQ60801.94380.axf

JavaScript Object Notation format (JSON) in row-major order
http://www.bom.gov.au/fwo/IDQ60801/IDQ60801.94380.json